• Join FlightAware (Why Join?)
  • Login
  • US Flag 
06:34AM EST


 

Airport Tracker/Info


-or-


 

Live Flight TrackerFlight Track Log ✈ PWA314 ✈ 14-Jul-2013 ✈ KLSE - KPWK

Flight Track Log - Related Links

Times and Time Zones

All times are in EDT time to prevent confusion due to time zone crossing. See the PWA314 flight status page for this flight to view local times or setup timezone preferences in your user account.

Time Position Orientation Groundspeed Altitude Reporting Facility
EDT Latitude Longitude Course Direction KTS MPH feet Rate Location/Type
04:27PM 43.7275 -91.0783 131° Southeast 270 311 10,500  Level Minneapolis Center
04:28PM 43.6656 -90.9708 129° Southeast 344 396 11,900 1,440 Climbing Minneapolis Center
04:29PM 43.5978 -90.8542 129° Southeast 372 428 13,500 1,140 Climbing Minneapolis Center
04:30PM 43.5344 -90.7433 128° Southeast 383 441 14,600 1,200 Climbing Minneapolis Center
04:32PM 43.4469 -90.5917 128° Southeast 393 452 16,300 1,200 Climbing Minneapolis Center
04:32PM 43.4006 -90.5161 130° Southeast 397 457 16,900 360 Climbing Chicago Center
04:33PM 43.3178 -90.3736 129° Southeast 400 460 17,000  Climbing Chicago Center
04:34PM 43.2472 -90.2539 129° Southeast 402 463 16,900 -540 Descending Chicago Center
04:35PM 43.1794 -90.1411 129° Southeast 389 448 15,900 -1,020 Descending Chicago Center
04:36PM 43.1156 -90.0300 128° Southeast 384 442 14,800 -1,260 Descending Chicago Center
04:38PM 43.0342 -89.8950 129° Southeast 385 443 13,400 -1,260 Descending Chicago Center
04:39PM 42.9675 -89.7822 129° Southeast 383 441 12,200 -1,080 Descending Chicago Center
04:40PM 42.9017 -89.6719 129° Southeast 378 435 11,200 -600 Descending Chicago Center
04:41PM 42.8339 -89.5608 130° Southeast 380 437 11,000 -120 Descending Chicago Center
04:42PM 42.7678 -89.4517 129° Southeast 377 434 11,000  Level Chicago Center
04:43PM 42.6919 -89.3253 129° Southeast 373 429 11,000 -420 Level Chicago Center
04:44PM 42.6278 -89.2194 129° Southeast 365 420 10,200 -900 Descending Chicago Center
04:45PM 42.5742 -89.1306 129° Southeast 315 362 9,200 -1,380 Descending Chicago Center
04:46PM 42.5372 -89.0403 119° Southeast 281 323 7,400 -1,620 Descending Chicago Center
04:47PM 42.5092 -88.9447 112° Southeast 273 314 5,900 -1,140 Descending Chicago Center
04:48PM 42.4811 -88.8517 112° Southeast 269 310 5,100 -480 Descending Chicago Center
04:49PM 42.4475 -88.7422 113° Southeast 269 310 5,000 -60 Descending Chicago Center
04:50PM 42.4197 -88.6497 112° Southeast 268 308 5,000  Level Chicago Center
04:51PM 42.4094 -88.5533 98° East 269 310 5,000  Level Chicago Center
04:52PM 42.4031 -88.4514 95° East 274 315 5,000  Level Chicago Center
04:53PM 42.3797 -88.3533 108° East 273 314 5,000 -300 Level Chicago Center
04:54PM 42.3539 -88.2411 107° East 271 312 4,500 -660 Descending Chicago Center
04:55PM 42.3317 -88.1478 108° East 267 307 3,700 -780 Descending Chicago Center
04:56PM 42.3022 -88.0542 113° Southeast 268 308 3,000 -360 Descending Chicago Center
04:57PM 42.2608 -87.9883 130° Southeast 249 287 3,000 -300 Level Chicago Center
04:58PM 42.2069 -87.9506 153° Southeast 234 269 2,400 -720 Descending Chicago Center
04:59PM 42.1517 -87.9233 160° South 219 252 1,600 -780 Descending Chicago Center
05:01PM 42.1143 -87.9015 151° Southeast  Level Estimated
05:08PM 42.1143 -87.9015 151° Southeast  Level Estimated
05:09PM 42.1143 -87.9015 151° Southeast  Level Estimated
05:10PM 42.1143 -87.9015 151° Southeast  Level Estimated